SKLT/LET METAR and TAF weather

Enter ICAO airport designator
Station Type Date Time Source
SKLT METAR 2019/02/16 17:00 UTC NOAA

SKLT 161700Z 23004KT 9999 BKN017 SCT100 29/25 A2994


Station Type Date Time Source
SKLT Decoded METAR 2019/02/16 17:00 UTC NOAA

Leticia / Vasquez Cobo, Colombia (SKLT) 04-10S 069-57W 84M
Feb 16, 2019 - 12:00 PM EST / 2019.02.16 1700 UTC
Wind: from the SW (230 degrees) at 5 MPH (4 KT):0
Visibility: greater than 7 mile(s):0
Sky conditions: mostly cloudy
Temperature: 84 F (29 C)
Dew Point: 77 F (25 C)
Relative Humidity: 79%
Pressure (altimeter): 29.94 in. Hg (1013 hPa)
ob: SKLT 161700Z 23004KT 9999 BKN017 SCT100 29/25 A2994
cycle: 17

Station Type Date Time Source
SKLT TAF 2019/02/16 18:36 UTC NOAA

TAF SKLT 161700Z 1618/1718 21005KT 9999 SCT012 BKN100
BECMG 1620/1622 VRB02KT
TEMPO 1621/1702 8000 DZ SCT017CB
TEMPO 1709/1713 5000 BR DZ TX33/1617Z TN23/1711Z


Example: see airport list